Time;durP1;ratioP1;P1;durP2;ratioP2;P2;SDS_P1;SDS_P2;PMS_P1;PMS_P2;Temp;Humidity;BMP_temperature;BMP_pressure;BME280_temperature;BME280_humidity;BME280_pressure;Samples;Min_cycle;Max_cycle;Signal;HPM_P1;HPM_P2
2022/07/19 00:01:43;;;;;;;5.10;3.93;;;;;;;19.28;66.63;100721.16;5122687;28;20501;-66
2022/07/19 00:04:10;;;;;;;4.90;3.50;;;;;;;19.22;67.13;100719.22;5123446;28;20461;-66
2022/07/19 00:06:37;;;;;;;4.23;3.40;;;;;;;19.18;67.04;100724.16;5122922;28;20478;-66
2022/07/19 00:09:05;;;;;;;5.53;2.97;;;;;;;19.12;66.78;100719.47;5124417;28;20433;-66
2022/07/19 00:11:32;;;;;;;4.63;3.00;;;;;;;19.10;66.97;100724.25;5122981;28;20504;-64
2022/07/19 00:13:59;;;;;;;4.57;2.87;;;;;;;19.09;66.93;100719.00;5123199;28;20598;-64
2022/07/19 00:16:25;;;;;;;4.77;3.10;;;;;;;18.99;66.78;100709.28;5122664;28;20480;-64
2022/07/19 00:18:52;;;;;;;4.10;2.73;;;;;;;18.86;67.01;100708.22;5123833;28;20445;-66
2022/07/19 00:21:19;;;;;;;5.60;2.93;;;;;;;18.81;66.70;100712.28;5122606;28;20840;-65
2022/07/19 00:23:45;;;;;;;4.03;3.10;;;;;;;18.85;66.52;100717.38;5122901;28;20470;-65
2022/07/19 00:26:13;;;;;;;3.00;2.47;;;;;;;18.82;66.74;100715.88;5122740;28;20953;-65
2022/07/19 00:28:40;;;;;;;4.50;3.23;;;;;;;18.73;67.42;100704.25;5123373;28;20462;-65
2022/07/19 00:31:07;;;;;;;6.70;3.10;;;;;;;18.69;67.53;100702.91;5123120;28;20508;-65
2022/07/19 00:33:33;;;;;;;4.57;3.10;;;;;;;18.62;67.90;100701.97;5122952;28;21224;-65
2022/07/19 00:36:00;;;;;;;3.27;2.97;;;;;;;18.57;68.53;100707.06;5122076;28;20481;-66
2022/07/19 00:38:27;;;;;;;3.93;3.07;;;;;;;18.48;68.47;100706.31;5123216;28;20465;-66
2022/07/19 00:40:54;;;;;;;6.23;3.47;;;;;;;18.42;68.89;100707.88;5122385;28;20461;-65
2022/07/19 00:43:22;;;;;;;3.40;3.10;;;;;;;18.39;69.05;100705.53;5122738;28;20465;-66
2022/07/19 00:45:48;;;;;;;4.03;3.53;;;;;;;18.37;68.33;100706.75;5122600;27;20470;-66
2022/07/19 00:48:15;;;;;;;6.00;3.73;;;;;;;18.27;69.01;100708.84;5122835;28;20934;-65
2022/07/19 00:50:42;;;;;;;4.23;3.03;;;;;;;18.21;69.46;100703.13;5122181;28;20514;-67
2022/07/19 00:53:11;;;;;;;2.97;2.67;;;;;;;18.20;69.31;100711.41;5122271;28;20453;-67
2022/07/19 00:55:38;;;;;;;3.20;2.33;;;;;;;18.18;69.49;100702.66;5122480;28;20881;-67
2022/07/19 00:58:04;;;;;;;5.10;3.07;;;;;;;18.15;69.65;100703.00;5123406;28;20430;-68
2022/07/19 01:00:34;;;;;;;4.73;3.23;;;;;;;18.11;69.75;100705.22;5122063;28;20487;-66
2022/07/19 01:03:02;;;;;;;5.20;3.33;;;;;;;18.03;69.64;100692.56;5122414;28;20454;-65
2022/07/19 01:05:28;;;;;;;4.60;3.60;;;;;;;18.08;69.49;100702.03;5122112;27;20454;-65
2022/07/19 01:07:55;;;;;;;7.47;3.50;;;;;;;18.11;69.68;100704.38;5122214;28;20453;-65
2022/07/19 01:10:22;;;;;;;4.97;3.50;;;;;;;18.11;69.54;100699.81;5122344;28;20445;-65
2022/07/19 01:12:48;;;;;;;4.10;2.87;;;;;;;18.10;69.71;100699.97;5122511;28;20441;-65
2022/07/19 01:15:18;;;;;;;3.00;2.70;;;;;;;18.00;70.33;100702.91;5122039;28;20450;-65
2022/07/19 01:17:47;;;;;;;4.47;3.20;;;;;;;17.98;70.31;100703.09;5122319;28;20426;-65
2022/07/19 01:20:14;;;;;;;4.80;3.40;;;;;;;17.95;70.08;100703.47;5121819;28;20450;-65
2022/07/19 01:22:43;;;;;;;3.83;3.10;;;;;;;17.91;70.45;100704.81;5121152;28;21101;-66
2022/07/19 01:25:11;;;;;;;6.10;3.63;;;;;;;17.89;70.09;100698.75;5121397;27;20490;-65
2022/07/19 01:27:41;;;;;;;5.33;3.20;;;;;;;17.88;70.25;100700.63;5122288;28;20832;-66
2022/07/19 01:30:13;;;;;;;4.97;3.20;;;;;;;17.86;70.74;100699.09;5121661;27;20808;-65
2022/07/19 01:32:39;;;;;;;8.33;2.83;;;;;;;17.81;70.62;100709.56;5121767;28;20456;-66
2022/07/19 01:35:07;;;;;;;4.50;3.10;;;;;;;17.75;70.65;100704.88;5122290;28;20446;-66
2022/07/19 01:37:34;;;;;;;3.70;3.23;;;;;;;17.78;70.38;100707.25;5121213;28;20497;-66
2022/07/19 01:40:02;;;;;;;5.50;3.00;;;;;;;17.74;70.32;100703.19;5121898;28;20470;-66
2022/07/19 01:42:29;;;;;;;5.33;3.53;;;;;;;17.66;69.94;100704.06;5121708;28;21063;-65
2022/07/19 01:44:56;;;;;;;4.30;3.27;;;;;;;17.60;70.23;100711.03;5121432;28;20453;-65
2022/07/19 01:47:23;;;;;;;9.00;3.77;;;;;;;17.59;69.78;100705.81;5120810;28;20478;-65
2022/07/19 01:49:49;;;;;;;4.03;3.30;;;;;;;17.49;69.75;100709.53;5121703;28;20466;-65
2022/07/19 01:52:16;;;;;;;3.30;2.73;;;;;;;17.40;69.45;100713.28;5120542;28;20470;-65
2022/07/19 01:54:43;;;;;;;4.37;3.37;;;;;;;17.42;69.27;100708.56;5121918;28;20477;-65
2022/07/19 01:57:11;;;;;;;4.57;3.97;;;;;;;17.38;69.20;100706.41;5121063;28;20497;-66
2022/07/19 01:59:38;;;;;;;4.47;2.80;;;;;;;17.47;69.69;100703.47;5121655;28;20435;-66
2022/07/19 02:02:04;;;;;;;4.53;4.00;;;;;;;17.29;70.90;100703.72;5121004;28;20485;-65
2022/07/19 02:04:31;;;;;;;3.53;3.00;;;;;;;17.31;70.65;100717.88;5121862;28;20474;-65
2022/07/19 02:06:58;;;;;;;7.60;3.60;;;;;;;17.29;70.23;100719.94;5120539;28;20501;-66
2022/07/19 02:09:25;;;;;;;4.00;3.23;;;;;;;17.20;71.13;100723.63;5121599;28;20426;-66
2022/07/19 02:11:52;;;;;;;4.70;3.10;;;;;;;17.12;71.49;100719.09;5120910;28;20496;-65
2022/07/19 02:14:21;;;;;;;3.53;2.90;;;;;;;17.05;71.88;100720.81;5121026;28;20446;-65
2022/07/19 02:16:48;;;;;;;4.73;3.23;;;;;;;17.02;71.58;100715.75;5120138;28;20934;-65
2022/07/19 02:19:14;;;;;;;6.03;3.30;;;;;;;16.96;71.56;100708.34;5121321;28;20455;-65
2022/07/19 02:21:41;;;;;;;4.40;3.57;;;;;;;16.96;72.07;100711.06;5119612;28;20505;-66
2022/07/19 02:24:08;;;;;;;6.10;3.07;;;;;;;16.94;72.08;100704.94;5120407;28;20470;-66
2022/07/19 02:26:36;;;;;;;3.67;3.33;;;;;;;16.97;71.86;100701.91;5120557;28;20478;-65
2022/07/19 02:29:03;;;;;;;4.60;3.60;;;;;;;16.99;71.99;100707.97;5121505;28;20434;-65
2022/07/19 02:31:31;;;;;;;4.90;3.43;;;;;;;16.99;72.25;100701.75;5120513;27;20470;-66
2022/07/19 02:33:58;;;;;;;7.60;3.10;;;;;;;17.00;71.92;100708.84;5121335;28;20463;-66
2022/07/19 02:36:24;;;;;;;4.10;3.17;;;;;;;17.00;72.08;100708.84;5119397;28;20503;-65
2022/07/19 02:38:51;;;;;;;5.40;3.83;;;;;;;17.02;71.65;100699.53;5120916;28;20430;-65
2022/07/19 02:41:18;;;;;;;5.50;3.67;;;;;;;17.02;71.63;100696.00;5120352;28;20538;-65
2022/07/19 02:43:45;;;;;;;8.23;3.67;;;;;;;17.03;71.52;100695.84;5121076;28;20476;-65
2022/07/19 02:46:12;;;;;;;4.30;3.87;;;;;;;16.95;71.53;100698.53;5119402;28;20477;-66
2022/07/19 02:48:40;;;;;;;3.80;3.20;;;;;;;16.94;70.30;100702.25;5120810;28;20558;-65
2022/07/19 02:51:10;;;;;;;4.37;3.63;;;;;;;16.96;70.56;100708.34;5120031;28;20484;-65
2022/07/19 02:53:37;;;;;;;5.67;3.43;;;;;;;16.96;71.26;100699.38;5121271;28;20446;-65
2022/07/19 02:56:04;;;;;;;4.00;3.60;;;;;;;16.88;70.88;100711.88;5120307;28;20462;-66
2022/07/19 02:58:31;;;;;;;4.67;3.47;;;;;;;16.80;71.30;100703.75;5120542;28;20468;-65
2022/07/19 03:00:57;;;;;;;5.53;3.70;;;;;;;16.76;70.69;100708.66;5120134;28;20477;-64
2022/07/19 03:06:11;;;;;;;4.50;3.50;;;;;;;16.72;71.15;100715.41;5119580;28;20504;-65
2022/07/19 03:08:37;;;;;;;4.43;3.50;;;;;;;16.74;70.74;100712.56;5120702;28;20460;-65
2022/07/19 03:11:04;;;;;;;5.50;3.60;;;;;;;16.72;71.13;100714.59;5120017;28;20462;-65
2022/07/19 03:13:31;;;;;;;5.93;3.90;;;;;;;16.69;70.67;100709.50;5120619;28;20454;-65
2022/07/19 03:15:58;;;;;;;5.50;3.07;;;;;;;16.70;70.17;100708.47;5120199;28;20533;-65
2022/07/19 03:18:24;;;;;;;6.10;4.33;;;;;;;16.68;70.52;100707.81;5120255;28;20457;-65
2022/07/19 03:20:51;;;;;;;3.93;3.30;;;;;;;16.63;71.08;100705.63;5119996;28;21042;-65
2022/07/19 03:23:20;;;;;;;7.30;3.63;;;;;;;16.53;71.39;100715.75;5120075;28;20466;-65
2022/07/19 03:25:46;;;;;;;4.50;3.73;;;;;;;16.54;71.83;100709.34;5119677;28;20512;-65
2022/07/19 03:28:13;;;;;;;4.70;3.50;;;;;;;16.50;71.60;100710.69;5120920;28;20947;-65
2022/07/19 03:30:40;;;;;;;3.90;3.50;;;;;;;16.60;71.82;100711.38;5120262;28;20492;-65
2022/07/19 03:33:06;;;;;;;7.93;3.83;;;;;;;16.56;71.39;100710.00;5120713;28;20427;-65
2022/07/19 03:35:33;;;;;;;5.10;3.53;;;;;;;16.52;71.34;100706.78;5120988;28;20466;-65
2022/07/19 03:38:00;;;;;;;3.97;3.43;;;;;;;16.71;70.78;100718.28;5123447;28;20871;-65
2022/07/19 03:40:28;;;;;;;5.20;3.50;;;;;;;16.79;70.54;100717.41;5123865;28;20867;-65
2022/07/19 03:42:54;;;;;;;4.33;3.80;;;;;;;16.72;69.95;100720.81;5124555;28;20433;-65
2022/07/19 03:45:21;;;;;;;4.47;4.07;;;;;;;17.17;68.80;100717.75;5123334;28;20446;-65
2022/07/19 03:47:48;;;;;;;5.67;3.40;;;;;;;17.80;66.69;100716.84;5123667;28;20509;-65
2022/07/19 03:50:14;;;;;;;5.80;3.40;;;;;;;18.09;64.83;100718.09;5123034;28;20539;-65
2022/07/19 03:52:41;;;;;;;3.83;3.00;;;;;;;18.36;63.90;100716.72;5123683;28;20457;-65
2022/07/19 03:55:08;;;;;;;3.53;3.23;;;;;;;18.94;62.83;100717.13;5123459;28;20481;-65
2022/07/19 03:57:36;;;;;;;3.90;3.03;;;;;;;19.33;61.18;100709.78;5124383;28;20429;-65
2022/07/19 04:00:05;;;;;;;3.67;3.03;;;;;;;19.69;59.79;100706.28;5123520;27;20470;-65
2022/07/19 04:02:31;;;;;;;4.43;3.07;;;;;;;20.07;58.37;100717.00;5123485;28;20450;-66
2022/07/19 04:04:58;;;;;;;5.57;3.90;;;;;;;20.39;57.43;100718.38;5123748;28;20450;-65
2022/07/19 04:07:25;;;;;;;4.90;3.50;;;;;;;20.81;55.65;100711.25;5122347;28;20493;-65
2022/07/19 04:09:51;;;;;;;4.87;3.80;;;;;;;20.95;55.00;100720.34;5123858;28;20456;-65
2022/07/19 04:12:18;;;;;;;5.53;3.30;;;;;;;21.16;54.82;100713.19;5123680;28;20497;-65
2022/07/19 04:14:46;;;;;;;6.17;3.90;;;;;;;21.49;54.01;100720.72;5123875;28;20449;-65
2022/07/19 04:17:13;;;;;;;4.80;2.83;;;;;;;21.65;53.40;100722.28;5122874;28;20473;-65
2022/07/19 04:19:39;;;;;;;5.50;3.60;;;;;;;21.97;52.69;100718.03;5123658;28;20457;-65
2022/07/19 04:22:06;;;;;;;7.63;3.60;;;;;;;22.28;51.85;100714.78;5122242;28;20466;-65
2022/07/19 04:24:33;;;;;;;4.80;3.17;;;;;;;22.51;51.07;100728.00;5123663;28;20451;-65
2022/07/19 04:26:59;;;;;;;5.13;3.37;;;;;;;22.37;50.67;100718.97;5123054;28;20502;-65
2022/07/19 04:29:26;;;;;;;4.27;3.37;;;;;;;22.68;49.58;100716.72;5123902;28;20499;-66
2022/07/19 04:31:54;;;;;;;3.93;3.10;;;;;;;22.80;49.18;100720.50;5122432;28;20501;-66
2022/07/19 04:34:21;;;;;;;6.43;4.10;;;;;;;23.28;47.76;100722.19;5123415;28;21014;-66
2022/07/19 04:36:48;;;;;;;4.77;3.33;;;;;;;23.34;47.99;100715.03;5121782;27;20474;-66
2022/07/19 04:39:15;;;;;;;4.30;3.10;;;;;;;23.30;47.84;100720.06;5123268;28;20454;-66
2022/07/19 04:41:41;;;;;;;5.97;3.53;;;;;;;23.54;46.84;100721.25;5122551;28;20479;-66
2022/07/19 04:44:08;;;;;;;5.40;3.70;;;;;;;23.60;46.88;100725.03;5123345;28;20469;-66
2022/07/19 04:46:35;;;;;;;4.00;3.53;;;;;;;23.34;47.46;100725.94;5121376;28;21157;-65
2022/07/19 04:49:03;;;;;;;5.13;3.37;;;;;;;23.27;47.21;100732.22;5123149;28;20468;-66
2022/07/19 04:51:29;;;;;;;6.70;3.53;;;;;;;24.51;44.81;100723.97;5122356;28;20470;-66
2022/07/19 04:53:56;;;;;;;6.00;3.50;;;;;;;24.42;44.57;100734.28;5122755;28;20438;-66
2022/07/19 04:56:25;;;;;;;5.47;4.00;;;;;;;24.49;44.60;100726.03;5102489;28;20492;-66
2022/07/19 04:58:52;;;;;;;6.57;3.43;;;;;;;24.54;44.99;100731.72;5096659;28;20470;-66
2022/07/19 05:01:19;;;;;;;5.60;3.73;;;;;;;24.06;45.78;100726.72;5101102;28;20489;-67
2022/07/19 05:03:45;;;;;;;5.70;4.00;;;;;;;25.05;44.23;100727.13;5101831;28;21084;-67
2022/07/19 05:06:13;;;;;;;3.83;3.33;;;;;;;25.07;43.85;100722.25;5099771;28;20526;-67
2022/07/19 05:08:40;;;;;;;5.07;3.80;;;;;;;24.83;44.85;100725.84;5102074;28;21282;-67
2022/07/19 05:11:07;;;;;;;5.90;3.70;;;;;;;25.75;43.01;100729.53;5100405;28;20478;-67
2022/07/19 05:13:33;;;;;;;4.33;3.40;;;;;;;26.77;40.51;100729.81;5101265;28;20451;-67
2022/07/19 05:16:00;;;;;;;5.17;3.30;;;;;;;25.74;42.93;100730.63;5100863;28;20459;-67
2022/07/19 05:18:27;;;;;;;3.43;3.10;;;;;;;26.10;42.53;100715.19;5101223;28;20427;-68
2022/07/19 05:20:53;;;;;;;3.77;3.43;;;;;;;26.85;40.44;100718.50;5100041;28;20467;-67
2022/07/19 05:23:21;;;;;;;5.53;3.30;;;;;;;26.44;41.59;100721.03;5100601;28;20447;-66
2022/07/19 05:25:48;;;;;;;11.67;4.30;;;;;;;25.92;43.06;100724.25;5100561;28;20478;-67
2022/07/19 05:28:15;;;;;;;6.50;3.53;;;;;;;26.73;41.05;100723.97;5100443;28;20463;-68
2022/07/19 05:30:43;;;;;;;5.33;3.47;;;;;;;26.54;40.92;100714.13;5100917;28;20466;-66
2022/07/19 05:33:09;;;;;;;3.63;3.13;;;;;;;27.05;39.68;100729.16;5093047;28;20530;-67
2022/07/19 05:35:37;;;;;;;4.97;3.80;;;;;;;26.86;39.57;100720.19;5099588;28;21690;-67
2022/07/19 05:38:04;;;;;;;6.17;3.60;;;;;;;27.29;39.50;100718.16;5100477;28;20455;-67
2022/07/19 05:40:34;;;;;;;5.03;3.70;;;;;;;27.49;38.52;100723.28;5100123;28;20467;-67
2022/07/19 05:43:01;;;;;;;4.00;3.00;;;;;;;27.34;38.64;100721.03;5100481;28;20488;-67
2022/07/19 05:45:30;;;;;;;6.80;3.97;;;;;;;27.51;38.45;100716.47;5099558;27;20518;-67
2022/07/19 05:47:57;;;;;;;4.57;3.47;;;;;;;27.71;37.03;100718.81;5100267;28;20560;-67
2022/07/19 05:50:24;;;;;;;4.80;3.33;;;;;;;27.81;36.89;100723.66;5099625;27;20454;-68
2022/07/19 05:52:50;;;;;;;4.20;3.80;;;;;;;28.66;35.72;100724.78;5100051;28;20485;-68
2022/07/19 05:55:17;;;;;;;7.80;3.57;;;;;;;27.94;36.68;100723.44;5097726;28;20554;-68
2022/07/19 05:57:45;;;;;;;8.50;4.00;;;;;;;28.07;36.24;100719.56;5098929;28;20465;-67
2022/07/19 06:00:14;;;;;;;4.33;3.90;;;;;;;28.12;36.81;100724.31;5099873;27;20480;-67
2022/07/19 06:02:41;;;;;;;8.07;3.43;;;;;;;29.57;34.72;100729.19;5100805;28;20495;-66
2022/07/19 06:05:08;;;;;;;5.13;3.70;;;;;;;29.14;34.70;100714.22;5098807;27;20476;-66
2022/07/19 06:07:35;;;;;;;5.90;3.73;;;;;;;30.71;32.87;100715.53;5099725;28;20487;-66
2022/07/19 06:10:02;;;;;;;4.60;3.80;;;;;;;29.70;34.35;100719.69;5099995;28;20462;-67
2022/07/19 06:12:30;;;;;;;8.30;4.27;;;;;;;29.39;34.83;100722.06;5099413;27;20482;-67
2022/07/19 06:14:58;;;;;;;4.83;3.80;;;;;;;29.80;33.48;100719.00;5099377;28;20465;-69
2022/07/19 06:17:24;;;;;;;8.50;3.80;;;;;;;30.10;32.99;100710.25;5099459;28;20474;-66
2022/07/19 06:19:51;;;;;;;4.23;3.47;;;;;;;29.45;34.87;100711.94;5099769;28;20442;-67
2022/07/19 06:22:18;;;;;;;4.10;3.10;;;;;;;30.41;32.99;100713.34;5097370;28;20498;-67
2022/07/19 06:24:46;;;;;;;4.23;3.10;;;;;;;30.06;33.29;100719.31;5100081;28;20451;-67
2022/07/19 06:27:13;;;;;;;6.23;3.63;;;;;;;31.75;31.30;100720.59;5098563;28;20504;-68
2022/07/19 06:29:39;;;;;;;3.47;3.17;;;;;;;30.43;32.98;100719.41;5100198;28;20443;-66
2022/07/19 06:32:07;;;;;;;4.53;3.53;;;;;;;29.73;34.57;100716.41;5099087;27;20562;-67
2022/07/19 06:34:34;;;;;;;7.20;3.50;;;;;;;31.10;32.17;100711.69;5097463;28;20443;-66
2022/07/19 06:37:01;;;;;;;6.67;3.23;;;;;;;32.43;30.50;100715.00;5098725;27;20488;-66
2022/07/19 06:39:27;;;;;;;6.10;2.87;;;;;;;32.61;30.72;100719.19;5099896;28;20462;-67
2022/07/19 06:41:54;;;;;;;6.67;2.90;;;;;;;33.06;27.72;100713.06;5097540;28;20485;-67
2022/07/19 06:44:21;;;;;;;4.87;3.10;;;;;;;31.57;30.27;100708.09;5099731;28;20455;-66
2022/07/19 06:46:47;;;;;;;8.93;3.23;;;;;;;31.69;30.35;100708.69;5097718;28;20519;-66
2022/07/19 06:49:15;;;;;;;5.00;2.73;;;;;;;31.43;31.00;100704.97;5097939;28;20458;-66
2022/07/19 06:51:42;;;;;;;5.60;2.53;;;;;;;31.51;30.65;100704.50;5098098;28;20467;-67
2022/07/19 06:54:09;;;;;;;4.40;2.83;;;;;;;32.12;29.23;100711.34;5099374;28;20439;-68
2022/07/19 06:56:35;;;;;;;7.73;3.00;;;;;;;32.96;27.96;100709.16;5097580;28;20531;-67
2022/07/19 06:59:02;;;;;;;5.87;2.60;;;;;;;32.50;29.30;100711.09;5099185;28;20435;-67
2022/07/19 07:01:29;;;;;;;2.90;2.60;;;;;;;32.45;29.08;100711.97;5099303;27;20475;-67
2022/07/19 07:03:55;;;;;;;4.20;2.80;;;;;;;32.55;28.63;100711.09;5098795;28;20492;-67
2022/07/19 07:06:24;;;;;;;5.77;2.30;;;;;;;33.70;27.17;100717.88;5098607;27;20478;-67
2022/07/19 07:08:51;;;;;;;4.13;2.77;;;;;;;33.91;27.27;100703.91;5099875;28;20477;-68
2022/07/19 07:11:18;;;;;;;5.90;2.83;;;;;;;34.82;25.55;100709.94;5101707;27;20508;-67
2022/07/19 07:13:44;;;;;;;2.73;2.53;;;;;;;35.47;24.78;100705.09;5103706;28;20480;-67
2022/07/19 07:16:11;;;;;;;5.73;3.00;;;;;;;35.90;24.16;100705.97;5102414;27;21100;-67
2022/07/19 07:18:38;;;;;;;7.57;3.30;;;;;;;34.97;25.19;100706.19;5103107;28;20435;-67
2022/07/19 07:21:07;;;;;;;12.50;3.00;;;;;;;35.91;24.78;100709.56;5102266;28;20465;-67
2022/07/19 07:23:35;;;;;;;10.93;3.30;;;;;;;33.48;27.85;100707.13;5102326;28;20457;-67
2022/07/19 07:26:02;;;;;;;5.00;2.60;;;;;;;33.45;28.02;100706.88;5102375;28;20463;-66
2022/07/19 07:28:29;;;;;;;16.53;2.83;;;;;;;35.15;26.05;100698.22;5103407;28;20475;-67
2022/07/19 07:30:55;;;;;;;4.80;2.77;;;;;;;35.58;24.07;100707.44;5102292;28;20498;-66
2022/07/19 07:33:22;;;;;;;7.23;2.60;;;;;;;34.65;25.34;100698.38;5102698;28;20435;-67
2022/07/19 07:35:49;;;;;;;2.47;2.27;;;;;;;36.28;23.88;100700.38;5102389;28;20482;-67
2022/07/19 07:38:15;;;;;;;5.20;3.10;;;;;;;35.23;24.92;100694.81;5102338;28;20478;-67
2022/07/19 07:40:43;;;;;;;9.33;2.50;;;;;;;35.25;24.57;100698.94;5101925;27;20474;-67
2022/07/19 07:43:10;;;;;;;5.27;2.90;;;;;;;35.71;23.79;100693.94;5103299;28;20427;-68
2022/07/19 07:45:37;;;;;;;6.73;2.67;;;;;;;35.38;24.25;100691.88;5102475;27;20502;-67
2022/07/19 07:48:04;;;;;;;5.97;2.63;;;;;;;35.76;23.89;100691.97;5101979;28;21056;-67
2022/07/19 07:50:31;;;;;;;3.93;2.10;;;;;;;36.20;23.17;100695.50;5102296;28;20482;-67
2022/07/19 07:52:58;;;;;;;3.70;2.50;;;;;;;36.60;22.56;100697.91;5102609;28;20455;-67
2022/07/19 07:55:25;;;;;;;5.70;2.20;;;;;;;37.20;21.75;100695.19;5100700;28;20459;-68
2022/07/19 07:57:53;;;;;;;3.53;2.50;;;;;;;36.67;22.54;100685.25;5102811;28;20529;-67
2022/07/19 08:00:20;;;;;;;3.33;2.30;;;;;;;36.99;21.58;100686.38;5102215;27;20471;-67
2022/07/19 08:02:49;;;;;;;9.00;2.23;;;;;;;36.75;22.29;100684.59;5101620;28;20436;-66
2022/07/19 08:05:16;;;;;;;4.43;2.33;;;;;;;37.62;21.59;100692.38;5101732;28;20443;-67
2022/07/19 08:07:42;;;;;;;8.77;2.87;;;;;;;37.68;21.87;100700.34;5102362;28;20555;-67
2022/07/19 08:10:10;;;;;;;6.30;2.27;;;;;;;36.86;22.55;100685.22;5101852;28;20424;-67
2022/07/19 08:12:37;;;;;;;7.60;1.90;;;;;;;37.31;21.36;100684.66;5102094;28;20459;-66
2022/07/19 08:15:06;;;;;;;5.70;2.60;;;;;;;38.41;20.34;100688.34;5102148;28;20460;-67
2022/07/19 08:17:33;;;;;;;9.10;2.57;;;;;;;37.75;21.57;100685.97;5101180;28;20815;-67
2022/07/19 08:19:59;;;;;;;7.10;2.50;;;;;;;38.46;20.40;100691.03;5102584;28;20452;-67
2022/07/19 08:22:28;;;;;;;2.50;2.20;;;;;;;39.63;19.16;100682.53;5100654;27;20617;-67
2022/07/19 08:24:54;;;;;;;5.23;2.10;;;;;;;38.94;19.20;100689.50;5100728;28;20459;-67
2022/07/19 08:27:21;;;;;;;4.00;2.30;;;;;;;38.42;20.30;100695.59;5101795;28;20490;-67
2022/07/19 08:29:50;;;;;;;3.80;2.30;;;;;;;39.09;19.26;100682.69;5102453;28;20458;-67
2022/07/19 08:32:20;;;;;;;7.07;2.50;;;;;;;38.18;20.12;100687.53;5100539;28;20838;-67
2022/07/19 08:34:46;;;;;;;6.73;2.60;;;;;;;38.81;20.20;100685.66;5102137;28;20479;-66
2022/07/19 08:37:13;;;;;;;3.03;2.20;;;;;;;37.05;21.11;100685.16;5100314;28;20487;-67
2022/07/19 08:39:40;;;;;;;4.63;2.53;;;;;;;37.40;21.57;100691.16;5101514;28;20442;-67
2022/07/19 08:42:07;;;;;;;4.40;2.20;;;;;;;37.92;20.75;100690.91;5101045;28;20505;-67
2022/07/19 08:44:35;;;;;;;2.40;2.10;;;;;;;39.10;19.82;100678.75;5102299;28;20458;-67
2022/07/19 08:47:02;;;;;;;2.30;2.10;;;;;;;39.48;19.52;100673.47;5100113;28;21035;-69
2022/07/19 08:49:30;;;;;;;5.10;2.30;;;;;;;39.25;19.54;100680.28;5102099;28;20464;-69
2022/07/19 08:51:57;;;;;;;4.10;2.13;;;;;;;39.60;18.69;100683.19;5100353;28;21024;-67
2022/07/19 08:54:24;;;;;;;3.50;1.93;;;;;;;39.43;18.87;100681.16;5081179;28;20460;-68
2022/07/19 08:59:35;;;;;;;5.70;2.60;;;;;;;41.06;16.89;100677.00;5100273;28;20486;-70
2022/07/19 09:02:02;;;;;;;4.67;2.53;;;;;;;40.05;18.13;100682.94;5100252;28;20502;-66
2022/07/19 09:04:30;;;;;;;5.40;2.17;;;;;;;40.39;18.43;100675.69;5101277;28;20514;-66
2022/07/19 09:06:58;;;;;;;4.33;2.10;;;;;;;41.22;16.87;100674.44;5098028;27;20535;-69
2022/07/19 09:09:26;;;;;;;8.07;2.87;;;;;;;41.46;17.72;100678.59;5100571;28;20452;-67
2022/07/19 09:11:54;;;;;;;6.17;2.27;;;;;;;40.79;17.26;100676.22;5101228;27;20475;-67
2022/07/19 09:14:22;;;;;;;5.53;1.63;;;;;;;40.03;17.93;100669.25;5101672;28;20446;-67
2022/07/19 09:16:55;;;;;;;2.97;2.40;;;;;;;40.22;17.13;100671.72;5099265;27;20485;-68
2022/07/19 09:19:22;;;;;;;5.27;2.20;;;;;;;40.49;17.41;100669.72;5101288;28;20434;-67
2022/07/19 09:21:55;;;;;;;5.03;2.03;;;;;;;41.10;16.23;100671.53;5100484;27;20471;-67
2022/07/19 09:24:26;;;;;;;3.83;1.93;;;;;;;41.82;15.47;100666.81;5100663;28;20492;-67
2022/07/19 09:26:57;;;;;;;6.53;2.20;;;;;;;40.76;16.28;100673.28;5100106;27;20477;-67
2022/07/19 09:29:24;;;;;;;3.00;1.77;;;;;;;42.64;14.27;100671.88;5101188;28;20515;-68
2022/07/19 09:32:06;;;;;;;6.53;2.50;;;;;;;41.42;14.43;100664.44;5099727;28;20473;-67
2022/07/19 09:34:34;;;;;;;3.10;1.83;;;;;;;39.66;16.51;100665.09;5101361;28;20460;-67
2022/07/19 09:37:14;;;;;;;2.20;2.00;;;;;;;40.34;16.68;100667.44;5099044;28;20488;-67
2022/07/19 09:39:41;;;;;;;6.83;2.47;;;;;;;40.93;15.46;100658.41;5096327;28;20457;-67
2022/07/19 09:42:09;;;;;;;4.37;1.97;;;;;;;40.67;16.24;100662.91;5095673;28;20505;-67
2022/07/19 09:44:36;;;;;;;2.87;1.90;;;;;;;41.74;15.04;100664.91;5099382;28;20478;-66
2022/07/19 09:47:03;;;;;;;4.40;1.90;;;;;;;41.07;14.74;100656.19;5099585;28;20488;-64
2022/07/19 09:49:30;;;;;;;3.67;1.90;;;;;;;41.06;15.83;100662.97;5100333;28;20472;-64
2022/07/19 09:51:57;;;;;;;5.40;1.90;;;;;;;41.19;14.48;100656.28;5099487;28;20507;-64
2022/07/19 09:54:27;;;;;;;5.50;2.13;;;;;;;41.51;14.45;100645.56;5100651;28;20461;-64
2022/07/19 09:56:55;;;;;;;3.00;1.73;;;;;;;41.86;13.63;100650.09;5099548;28;20510;-65
2022/07/19 09:59:23;;;;;;;3.07;1.90;;;;;;;41.55;14.87;100640.91;5100685;28;20459;-65
2022/07/19 10:01:54;;;;;;;3.33;2.13;;;;;;;41.02;14.32;100642.34;5099496;28;20550;-65
2022/07/19 10:04:22;;;;;;;4.73;2.10;;;;;;;40.73;14.33;100641.16;5099221;28;20478;-64
2022/07/19 10:06:51;;;;;;;6.23;1.80;;;;;;;42.65;13.55;100641.75;5099472;27;20522;-64
2022/07/19 10:09:19;;;;;;;2.53;1.73;;;;;;;40.45;14.95;100635.13;5100167;28;20608;-64
2022/07/19 10:11:47;;;;;;;3.67;2.20;;;;;;;42.30;12.65;100639.31;5099090;27;21035;-65
2022/07/19 10:14:15;;;;;;;3.10;1.63;;;;;;;43.01;12.95;100635.38;5100477;28;20988;-65
2022/07/19 10:17:07;;;;;;;3.87;2.00;;;;;;;41.92;13.17;100634.69;5098898;28;20482;-65
2022/07/19 10:19:37;;;;;;;3.33;1.97;;;;;;;42.52;12.85;100635.31;5090721;28;20467;-64
2022/07/19 10:22:04;;;;;;;1.93;1.50;;;;;;;41.82;12.90;100624.69;5099230;27;21050;-65
2022/07/19 10:24:43;;;;;;;3.90;1.93;;;;;;;41.48;12.99;100625.78;5100226;28;20931;-64
2022/07/19 10:27:11;;;;;;;4.57;2.10;;;;;;;41.88;12.96;100619.72;5098586;27;20482;-64
2022/07/19 10:29:38;;;;;;;2.73;1.90;;;;;;;41.27;13.51;100614.50;5099897;28;20446;-65
2022/07/19 10:32:07;;;;;;;3.53;1.53;;;;;;;41.20;13.51;100617.84;5099461;28;20458;-65
2022/07/19 10:34:34;;;;;;;3.30;1.43;;;;;;;40.92;13.41;100611.88;5099493;28;20465;-66
2022/07/19 10:37:01;;;;;;;3.20;1.93;;;;;;;40.62;13.68;100607.03;5098500;28;20484;-66
2022/07/19 10:39:31;;;;;;;3.33;1.80;;;;;;;40.73;13.59;100599.09;5099150;28;20430;-65
2022/07/19 10:42:25;;;;;;;5.10;1.90;;;;;;;42.41;13.20;100603.97;5098138;28;20479;-65
2022/07/19 10:45:15;;;;;;;2.40;1.83;;;;;;;42.47;12.40;100591.34;5099605;28;20546;-65
2022/07/19 10:48:09;;;;;;;4.20;1.47;;;;;;;41.13;12.72;100587.53;5097896;28;20476;-65
2022/07/19 10:50:48;;;;;;;2.40;1.53;;;;;;;42.03;12.45;100592.94;5099132;28;20494;-65
2022/07/19 10:54:00;;;;;;;3.33;1.60;;;;;;;42.19;13.10;100590.34;5098463;28;20570;-65
2022/07/19 10:56:41;;;;;;;2.47;1.40;;;;;;;41.25;13.21;100586.81;5094884;27;20493;-65
2022/07/19 10:59:11;;;;;;;2.37;1.33;;;;;;;40.47;13.90;100585.19;5099647;28;20438;-65
2022/07/19 11:01:39;;;;;;;7.00;2.10;;;;;;;41.21;13.01;100583.00;5099018;27;21245;-65
2022/07/19 11:04:28;;;;;;;2.90;1.73;;;;;;;42.34;13.98;100578.44;5099217;28;20458;-65
2022/07/19 11:07:10;;;;;;;3.83;1.60;;;;;;;43.20;11.41;100572.88;5096933;28;20539;-65
2022/07/19 11:09:41;;;;;;;3.13;1.97;;;;;;;42.05;12.99;100576.56;5098969;28;20502;-66
2022/07/19 11:12:30;;;;;;;4.07;1.80;;;;;;;41.85;12.50;100578.28;5099331;28;20486;-65
2022/07/19 11:14:59;;;;;;;2.53;1.63;;;;;;;41.88;12.54;100569.16;5098807;28;21044;-65
2022/07/19 11:17:26;;;;;;;2.70;1.80;;;;;;;40.96;13.35;100562.41;5097245;28;20521;-65
2022/07/19 11:20:00;;;;;;;3.60;1.80;;;;;;;41.65;13.51;100563.06;5098840;28;20454;-65
2022/07/19 11:22:27;;;;;;;4.80;1.70;;;;;;;41.00;13.28;100560.53;5097567;28;20512;-65
2022/07/19 11:24:53;;;;;;;3.23;1.70;;;;;;;40.89;13.30;100557.31;5099061;28;20484;-65
2022/07/19 11:27:20;;;;;;;2.73;1.80;;;;;;;40.37;14.22;100551.94;5099078;28;20482;-64
2022/07/19 11:29:58;;;;;;;3.47;1.53;;;;;;;40.76;13.75;100545.13;5099540;28;21008;-64
2022/07/19 11:32:25;;;;;;;5.40;1.80;;;;;;;40.78;13.15;100540.03;5099409;28;20476;-64
2022/07/19 11:34:56;;;;;;;3.73;1.53;;;;;;;40.24;14.40;100540.56;5098908;28;20443;-64